sensor_id;sensor_type;location;lat;lon;timestamp;temperature;humidity
43987;DHT22;29650;47.378;8.300;2023-04-01T00:02:26;8.80;99.90
43987;DHT22;29650;47.378;8.300;2023-04-01T00:04:53;8.70;99.90
43987;DHT22;29650;47.378;8.300;2023-04-01T00:07:21;8.80;99.90
43987;DHT22;29650;47.378;8.300;2023-04-01T00:09:49;8.80;99.60
43987;DHT22;29650;47.378;8.300;2023-04-01T00:12:15;8.90;99.70
43987;DHT22;29650;47.378;8.300;2023-04-01T00:14:42;8.80;99.20
43987;DHT22;29650;47.378;8.300;2023-04-01T00:17:10;9.00;99.50
43987;DHT22;29650;47.378;8.300;2023-04-01T00:19:36;8.80;99.20
43987;DHT22;29650;47.378;8.300;2023-04-01T00:22:03;8.80;99.60
43987;DHT22;29650;47.378;8.300;2023-04-01T00:24:32;8.80;99.90
43987;DHT22;29650;47.378;8.300;2023-04-01T00:26:59;8.80;99.80
43987;DHT22;29650;47.378;8.300;2023-04-01T00:29:26;8.80;99.20
43987;DHT22;29650;47.378;8.300;2023-04-01T00:31:55;8.80;99.40
43987;DHT22;29650;47.378;8.300;2023-04-01T00:34:22;8.90;99.00
43987;DHT22;29650;47.378;8.300;2023-04-01T00:36:50;8.90;98.60
43987;DHT22;29650;47.378;8.300;2023-04-01T00:39:17;9.00;98.90
43987;DHT22;29650;47.378;8.300;2023-04-01T00:41:46;8.90;98.60
43987;DHT22;29650;47.378;8.300;2023-04-01T00:44:18;8.80;98.00
43987;DHT22;29650;47.378;8.300;2023-04-01T00:46:46;8.80;97.80
43987;DHT22;29650;47.378;8.300;2023-04-01T00:49:14;8.80;97.60
43987;DHT22;29650;47.378;8.300;2023-04-01T00:51:43;9.00;97.40
43987;DHT22;29650;47.378;8.300;2023-04-01T00:54:12;8.90;97.40
43987;DHT22;29650;47.378;8.300;2023-04-01T00:56:42;8.70;97.10
43987;DHT22;29650;47.378;8.300;2023-04-01T00:59:14;8.60;97.10
43987;DHT22;29650;47.378;8.300;2023-04-01T01:01:42;8.60;98.20
43987;DHT22;29650;47.378;8.300;2023-04-01T01:04:24;8.60;98.00
43987;DHT22;29650;47.378;8.300;2023-04-01T01:06:57;8.50;99.00
43987;DHT22;29650;47.378;8.300;2023-04-01T01:09:33;8.50;99.90
43987;DHT22;29650;47.378;8.300;2023-04-01T01:12:09;8.50;99.90
43987;DHT22;29650;47.378;8.300;2023-04-01T01:14:49;8.50;99.90
43987;DHT22;29650;47.378;8.300;2023-04-01T01:17:26;8.50;99.90
43987;DHT22;29650;47.378;8.300;2023-04-01T01:23:20;8.50;99.90
43987;DHT22;29650;47.378;8.300;2023-04-01T01:25:59;8.40;99.90
43987;DHT22;29650;47.378;8.300;2023-04-01T01:28:41;8.50;99.90
43987;DHT22;29650;47.378;8.300;2023-04-01T01:31:19;8.40;99.90
43987;DHT22;29650;47.378;8.300;2023-04-01T01:33:59;8.50;99.90
43987;DHT22;29650;47.378;8.300;2023-04-01T01:36:33;8.50;99.90
43987;DHT22;29650;47.378;8.300;2023-04-01T01:39:01;8.40;99.90
43987;DHT22;29650;47.378;8.300;2023-04-01T01:41:30;8.50;99.90
43987;DHT22;29650;47.378;8.300;2023-04-01T01:43:59;8.50;99.90
43987;DHT22;29650;47.378;8.300;2023-04-01T01:46:28;8.50;99.90
43987;DHT22;29650;47.378;8.300;2023-04-01T01:48:57;8.40;99.90
43987;DHT22;29650;47.378;8.300;2023-04-01T01:51:27;8.40;99.90
43987;DHT22;29650;47.378;8.300;2023-04-01T01:53:55;8.40;99.90
43987;DHT22;29650;47.378;8.300;2023-04-01T01:56:26;8.50;99.90
43987;DHT22;29650;47.378;8.300;2023-04-01T01:58:56;8.60;99.80
43987;DHT22;29650;47.378;8.300;2023-04-01T02:04:44;8.40;99.10
43987;DHT22;29650;47.378;8.300;2023-04-01T02:07:16;8.50;98.80
43987;DHT22;29650;47.378;8.300;2023-04-01T02:09:45;8.40;98.80
43987;DHT22;29650;47.378;8.300;2023-04-01T02:12:14;8.50;98.60
43987;DHT22;29650;47.378;8.300;2023-04-01T02:14:45;8.40;98.50
43987;DHT22;29650;47.378;8.300;2023-04-01T02:17:16;8.40;98.70
43987;DHT22;29650;47.378;8.300;2023-04-01T02:19:47;8.50;97.30
43987;DHT22;29650;47.378;8.300;2023-04-01T02:22:19;8.50;97.30
43987;DHT22;29650;47.378;8.300;2023-04-01T02:24:49;8.60;97.20
43987;DHT22;29650;47.378;8.300;2023-04-01T02:27:17;8.50;97.60
43987;DHT22;29650;47.378;8.300;2023-04-01T02:29:44;8.50;96.80
43987;DHT22;29650;47.378;8.300;2023-04-01T02:32:13;8.50;97.30
43987;DHT22;29650;47.378;8.300;2023-04-01T02:34:41;8.30;98.70
43987;DHT22;29650;47.378;8.300;2023-04-01T02:37:09;8.30;99.10
43987;DHT22;29650;47.378;8.300;2023-04-01T02:39:37;8.20;99.90
43987;DHT22;29650;47.378;8.300;2023-04-01T02:42:05;8.20;99.90
43987;DHT22;29650;47.378;8.300;2023-04-01T02:44:32;8.30;99.90
43987;DHT22;29650;47.378;8.300;2023-04-01T02:46:59;8.30;99.90
43987;DHT22;29650;47.378;8.300;2023-04-01T02:49:26;8.20;99.90
43987;DHT22;29650;47.378;8.300;2023-04-01T02:51:53;8.20;99.90
43987;DHT22;29650;47.378;8.300;2023-04-01T02:54:20;8.30;99.80
43987;DHT22;29650;47.378;8.300;2023-04-01T02:56:47;8.30;99.20
43987;DHT22;29650;47.378;8.300;2023-04-01T02:59:15;8.30;99.60
43987;DHT22;29650;47.378;8.300;2023-04-01T03:01:42;8.30;98.70
43987;DHT22;29650;47.378;8.300;2023-04-01T03:04:09;8.30;98.70
43987;DHT22;29650;47.378;8.300;2023-04-01T03:06:36;8.20;98.90
43987;DHT22;29650;47.378;8.300;2023-04-01T03:09:03;8.30;98.50
43987;DHT22;29650;47.378;8.300;2023-04-01T03:11:30;8.30;98.30
43987;DHT22;29650;47.378;8.300;2023-04-01T03:13:57;8.30;98.70
43987;DHT22;29650;47.378;8.300;2023-04-01T03:16:26;8.30;98.70
43987;DHT22;29650;47.378;8.300;2023-04-01T03:18:53;8.20;99.30
43987;DHT22;29650;47.378;8.300;2023-04-01T03:21:23;8.40;99.80
43987;DHT22;29650;47.378;8.300;2023-04-01T03:23:50;8.30;98.90
43987;DHT22;29650;47.378;8.300;2023-04-01T03:26:18;8.30;99.20
43987;DHT22;29650;47.378;8.300;2023-04-01T03:28:45;8.20;98.80
43987;DHT22;29650;47.378;8.300;2023-04-01T03:31:12;8.20;99.40
43987;DHT22;29650;47.378;8.300;2023-04-01T03:33:42;8.20;99.20
43987;DHT22;29650;47.378;8.300;2023-04-01T03:36:09;8.30;98.20
43987;DHT22;29650;47.378;8.300;2023-04-01T03:38:38;8.30;97.80
43987;DHT22;29650;47.378;8.300;2023-04-01T03:41:06;8.30;97.40
43987;DHT22;29650;47.378;8.300;2023-04-01T03:43:33;8.40;96.90
43987;DHT22;29650;47.378;8.300;2023-04-01T03:46:00;8.40;96.00
43987;DHT22;29650;47.378;8.300;2023-04-01T03:48:27;8.40;96.60
43987;DHT22;29650;47.378;8.300;2023-04-01T03:50:55;8.40;95.90
43987;DHT22;29650;47.378;8.300;2023-04-01T03:53:22;8.40;96.20
43987;DHT22;29650;47.378;8.300;2023-04-01T03:55:49;8.40;95.80
43987;DHT22;29650;47.378;8.300;2023-04-01T03:58:17;8.40;95.70
43987;DHT22;29650;47.378;8.300;2023-04-01T04:00:44;8.40;96.30
43987;DHT22;29650;47.378;8.300;2023-04-01T04:03:11;8.40;95.30
43987;DHT22;29650;47.378;8.300;2023-04-01T04:05:46;8.40;95.40
43987;DHT22;29650;47.378;8.300;2023-04-01T04:08:14;8.40;95.30
43987;DHT22;29650;47.378;8.300;2023-04-01T04:10:41;8.40;95.10
43987;DHT22;29650;47.378;8.300;2023-04-01T04:13:08;8.50;95.20
43987;DHT22;29650;47.378;8.300;2023-04-01T04:15:35;8.50;94.90
43987;DHT22;29650;47.378;8.300;2023-04-01T04:18:03;8.40;95.60
43987;DHT22;29650;47.378;8.300;2023-04-01T04:20:30;8.40;95.10
43987;DHT22;29650;47.378;8.300;2023-04-01T04:22:56;8.50;95.30
43987;DHT22;29650;47.378;8.300;2023-04-01T04:25:25;8.40;95.90
43987;DHT22;29650;47.378;8.300;2023-04-01T04:27:52;8.20;96.90
43987;DHT22;29650;47.378;8.300;2023-04-01T04:30:19;8.10;98.40
43987;DHT22;29650;47.378;8.300;2023-04-01T04:32:45;8.00;99.20
43987;DHT22;29650;47.378;8.300;2023-04-01T04:35:12;8.00;99.50
43987;DHT22;29650;47.378;8.300;2023-04-01T04:37:40;8.00;99.90
43987;DHT22;29650;47.378;8.300;2023-04-01T04:40:08;7.90;99.90
43987;DHT22;29650;47.378;8.300;2023-04-01T04:42:36;7.80;99.90
43987;DHT22;29650;47.378;8.300;2023-04-01T04:45:04;7.70;99.90
43987;DHT22;29650;47.378;8.300;2023-04-01T04:47:31;7.80;99.90
43987;DHT22;29650;47.378;8.300;2023-04-01T04:49:58;7.70;99.90
43987;DHT22;29650;47.378;8.300;2023-04-01T04:52:25;7.60;99.90
43987;DHT22;29650;47.378;8.300;2023-04-01T04:54:52;7.70;99.90
43987;DHT22;29650;47.378;8.300;2023-04-01T04:57:19;7.70;99.90
43987;DHT22;29650;47.378;8.300;2023-04-01T04:59:47;7.70;99.90
43987;DHT22;29650;47.378;8.300;2023-04-01T05:02:14;7.70;99.90
43987;DHT22;29650;47.378;8.300;2023-04-01T05:04:41;7.70;99.90
43987;DHT22;29650;47.378;8.300;2023-04-01T05:07:08;7.80;99.90
43987;DHT22;29650;47.378;8.300;2023-04-01T05:09:35;7.80;99.90
43987;DHT22;29650;47.378;8.300;2023-04-01T05:12:02;7.60;99.90
43987;DHT22;29650;47.378;8.300;2023-04-01T05:14:29;7.70;99.90
43987;DHT22;29650;47.378;8.300;2023-04-01T05:16:57;7.80;99.90
43987;DHT22;29650;47.378;8.300;2023-04-01T05:19:24;7.70;99.90
43987;DHT22;29650;47.378;8.300;2023-04-01T05:21:51;7.80;99.90
43987;DHT22;29650;47.378;8.300;2023-04-01T05:24:18;7.70;99.90
43987;DHT22;29650;47.378;8.300;2023-04-01T05:26:45;7.60;99.90
43987;DHT22;29650;47.378;8.300;2023-04-01T05:29:12;7.80;99.90
43987;DHT22;29650;47.378;8.300;2023-04-01T05:31:39;7.60;99.90
43987;DHT22;29650;47.378;8.300;2023-04-01T05:34:07;7.80;99.90
43987;DHT22;29650;47.378;8.300;2023-04-01T05:36:34;7.70;99.90
43987;DHT22;29650;47.378;8.300;2023-04-01T05:39:01;7.80;99.90
43987;DHT22;29650;47.378;8.300;2023-04-01T05:41:29;7.70;99.90
43987;DHT22;29650;47.378;8.300;2023-04-01T05:43:56;7.70;99.90
43987;DHT22;29650;47.378;8.300;2023-04-01T05:46:22;7.90;99.90
43987;DHT22;29650;47.378;8.300;2023-04-01T05:48:49;8.10;99.90
43987;DHT22;29650;47.378;8.300;2023-04-01T05:51:18;8.10;99.90
43987;DHT22;29650;47.378;8.300;2023-04-01T05:53:45;7.90;99.90
43987;DHT22;29650;47.378;8.300;2023-04-01T05:56:12;7.90;99.90
43987;DHT22;29650;47.378;8.300;2023-04-01T05:58:39;7.90;99.90
43987;DHT22;29650;47.378;8.300;2023-04-01T06:01:07;7.90;99.90
43987;DHT22;29650;47.378;8.300;2023-04-01T06:03:35;7.90;99.90
43987;DHT22;29650;47.378;8.300;2023-04-01T06:06:02;8.00;99.90
43987;DHT22;29650;47.378;8.300;2023-04-01T06:08:31;8.00;99.90
43987;DHT22;29650;47.378;8.300;2023-04-01T06:11:08;8.00;99.90
43987;DHT22;29650;47.378;8.300;2023-04-01T06:13:54;8.10;99.90
43987;DHT22;29650;47.378;8.300;2023-04-01T06:16:33;8.10;99.90
43987;DHT22;29650;47.378;8.300;2023-04-01T06:19:15;8.20;99.90
43987;DHT22;29650;47.378;8.300;2023-04-01T06:22:04;8.10;99.90
43987;DHT22;29650;47.378;8.300;2023-04-01T06:24:49;8.10;99.90
43987;DHT22;29650;47.378;8.300;2023-04-01T06:27:28;8.20;99.90
43987;DHT22;29650;47.378;8.300;2023-04-01T06:30:10;8.20;99.90
43987;DHT22;29650;47.378;8.300;2023-04-01T06:33:00;8.20;99.90
43987;DHT22;29650;47.378;8.300;2023-04-01T06:35:38;8.40;99.90
43987;DHT22;29650;47.378;8.300;2023-04-01T06:38:29;8.50;99.90
43987;DHT22;29650;47.378;8.300;2023-04-01T06:41:22;8.40;99.90
43987;DHT22;29650;47.378;8.300;2023-04-01T06:43:59;8.40;99.90
43987;DHT22;29650;47.378;8.300;2023-04-01T06:46:38;8.70;99.90
43987;DHT22;29650;47.378;8.300;2023-04-01T06:49:26;8.60;99.90
43987;DHT22;29650;47.378;8.300;2023-04-01T06:51:59;8.70;99.90
43987;DHT22;29650;47.378;8.300;2023-04-01T06:54:31;8.80;99.90
43987;DHT22;29650;47.378;8.300;2023-04-01T06:57:04;8.60;99.90
43987;DHT22;29650;47.378;8.300;2023-04-01T06:59:33;8.80;99.90
43987;DHT22;29650;47.378;8.300;2023-04-01T07:02:05;8.70;99.90
43987;DHT22;29650;47.378;8.300;2023-04-01T07:04:40;8.70;99.90
43987;DHT22;29650;47.378;8.300;2023-04-01T07:07:15;8.70;99.90
43987;DHT22;29650;47.378;8.300;2023-04-01T07:09:50;8.60;99.90
43987;DHT22;29650;47.378;8.300;2023-04-01T07:12:26;8.50;99.90
43987;DHT22;29650;47.378;8.300;2023-04-01T07:14:54;8.40;99.90
43987;DHT22;29650;47.378;8.300;2023-04-01T07:17:27;8.50;99.90
43987;DHT22;29650;47.378;8.300;2023-04-01T07:19:59;8.30;99.90
43987;DHT22;29650;47.378;8.300;2023-04-01T07:22:32;8.40;99.90
43987;DHT22;29650;47.378;8.300;2023-04-01T07:25:03;8.30;99.90
43987;DHT22;29650;47.378;8.300;2023-04-01T07:27:33;8.30;99.90
43987;DHT22;29650;47.378;8.300;2023-04-01T07:30:01;8.30;99.90
43987;DHT22;29650;47.378;8.300;2023-04-01T07:32:37;8.40;99.90
43987;DHT22;29650;47.378;8.300;2023-04-01T07:35:17;8.50;99.90
43987;DHT22;29650;47.378;8.300;2023-04-01T07:37:57;8.30;99.90
43987;DHT22;29650;47.378;8.300;2023-04-01T07:40:28;8.30;99.90
43987;DHT22;29650;47.378;8.300;2023-04-01T07:43:23;8.30;99.90
43987;DHT22;29650;47.378;8.300;2023-04-01T07:45:58;8.40;99.90
43987;DHT22;29650;47.378;8.300;2023-04-01T07:48:35;8.50;99.90
43987;DHT22;29650;47.378;8.300;2023-04-01T07:51:09;8.40;99.90
43987;DHT22;29650;47.378;8.300;2023-04-01T07:53:42;8.40;99.90
43987;DHT22;29650;47.378;8.300;2023-04-01T07:56:11;8.40;99.90
43987;DHT22;29650;47.378;8.300;2023-04-01T07:58:51;8.50;99.90
43987;DHT22;29650;47.378;8.300;2023-04-01T08:01:25;8.30;99.90
43987;DHT22;29650;47.378;8.300;2023-04-01T08:04:20;8.40;99.90
43987;DHT22;29650;47.378;8.300;2023-04-01T08:06:55;8.40;99.90
43987;DHT22;29650;47.378;8.300;2023-04-01T08:09:31;8.50;99.90
43987;DHT22;29650;47.378;8.300;2023-04-01T08:12:07;8.40;99.90
43987;DHT22;29650;47.378;8.300;2023-04-01T08:14:49;8.40;99.90
43987;DHT22;29650;47.378;8.300;2023-04-01T08:17:22;8.50;99.90
43987;DHT22;29650;47.378;8.300;2023-04-01T08:20:07;8.30;99.90
43987;DHT22;29650;47.378;8.300;2023-04-01T08:22:39;8.40;99.90
43987;DHT22;29650;47.378;8.300;2023-04-01T08:25:11;8.40;99.90
43987;DHT22;29650;47.378;8.300;2023-04-01T08:27:44;8.30;99.90
43987;DHT22;29650;47.378;8.300;2023-04-01T08:30:18;8.40;99.90
43987;DHT22;29650;47.378;8.300;2023-04-01T08:32:49;8.40;99.90
43987;DHT22;29650;47.378;8.300;2023-04-01T08:35:24;8.40;99.90
43987;DHT22;29650;47.378;8.300;2023-04-01T08:37:54;8.40;99.90
43987;DHT22;29650;47.378;8.300;2023-04-01T08:43:40;8.40;99.90
43987;DHT22;29650;47.378;8.300;2023-04-01T08:46:26;8.30;99.90
43987;DHT22;29650;47.378;8.300;2023-04-01T08:49:07;8.30;99.90
43987;DHT22;29650;47.378;8.300;2023-04-01T08:52:13;8.20;99.90
43987;DHT22;29650;47.378;8.300;2023-04-01T08:55:15;8.30;99.90
43987;DHT22;29650;47.378;8.300;2023-04-01T08:57:53;8.30;99.90
43987;DHT22;29650;47.378;8.300;2023-04-01T09:00:30;8.30;99.90
43987;DHT22;29650;47.378;8.300;2023-04-01T09:03:29;8.30;99.90
43987;DHT22;29650;47.378;8.300;2023-04-01T09:06:19;8.40;99.90
43987;DHT22;29650;47.378;8.300;2023-04-01T09:12:10;8.50;99.90
43987;DHT22;29650;47.378;8.300;2023-04-01T09:20:45;8.60;99.90
43987;DHT22;29650;47.378;8.300;2023-04-01T09:23:38;8.70;99.90
43987;DHT22;29650;47.378;8.300;2023-04-01T09:26:29;8.70;99.90
43987;DHT22;29650;47.378;8.300;2023-04-01T09:29:05;8.70;99.90
43987;DHT22;29650;47.378;8.300;2023-04-01T09:31:52;9.00;99.90
43987;DHT22;29650;47.378;8.300;2023-04-01T09:34:49;9.10;99.90
43987;DHT22;29650;47.378;8.300;2023-04-01T09:37:25;9.10;99.90
43987;DHT22;29650;47.378;8.300;2023-04-01T09:40:13;9.00;99.90
43987;DHT22;29650;47.378;8.300;2023-04-01T09:42:49;9.20;99.90
43987;DHT22;29650;47.378;8.300;2023-04-01T09:45:31;9.40;99.90
43987;DHT22;29650;47.378;8.300;2023-04-01T09:48:14;9.40;99.90
43987;DHT22;29650;47.378;8.300;2023-04-01T09:50:47;9.20;99.90
43987;DHT22;29650;47.378;8.300;2023-04-01T09:53:29;9.20;99.90
43987;DHT22;29650;47.378;8.300;2023-04-01T10:02:38;9.20;99.90
43987;DHT22;29650;47.378;8.300;2023-04-01T10:05:30;9.20;99.90
43987;DHT22;29650;47.378;8.300;2023-04-01T10:08:38;9.20;99.90
43987;DHT22;29650;47.378;8.300;2023-04-01T10:11:52;9.30;99.90
43987;DHT22;29650;47.378;8.300;2023-04-01T10:17:44;9.30;99.90
43987;DHT22;29650;47.378;8.300;2023-04-01T10:20:40;9.30;99.90
43987;DHT22;29650;47.378;8.300;2023-04-01T10:26:44;9.30;99.90
43987;DHT22;29650;47.378;8.300;2023-04-01T10:38:44;9.40;99.90
43987;DHT22;29650;47.378;8.300;2023-04-01T10:41:43;9.30;99.90
43987;DHT22;29650;47.378;8.300;2023-04-01T10:47:48;9.30;99.90
43987;DHT22;29650;47.378;8.300;2023-04-01T10:50:51;9.50;99.90
43987;DHT22;29650;47.378;8.300;2023-04-01T10:53:37;9.50;99.90
43987;DHT22;29650;47.378;8.300;2023-04-01T10:56:40;9.70;99.90
43987;DHT22;29650;47.378;8.300;2023-04-01T11:24:18;9.70;99.90
43987;DHT22;29650;47.378;8.300;2023-04-01T11:26:56;9.60;99.90
43987;DHT22;29650;47.378;8.300;2023-04-01T11:29:44;9.60;99.90
43987;DHT22;29650;47.378;8.300;2023-04-01T11:32:27;9.80;99.90
43987;DHT22;29650;47.378;8.300;2023-04-01T11:35:12;9.90;99.90
43987;DHT22;29650;47.378;8.300;2023-04-01T11:37:52;9.90;99.90
43987;DHT22;29650;47.378;8.300;2023-04-01T11:40:28;10.00;99.90
43987;DHT22;29650;47.378;8.300;2023-04-01T11:43:01;10.00;99.90
43987;DHT22;29650;47.378;8.300;2023-04-01T11:45:35;10.20;99.90
43987;DHT22;29650;47.378;8.300;2023-04-01T11:48:27;10.20;99.90
43987;DHT22;29650;47.378;8.300;2023-04-01T11:51:16;10.20;99.90
43987;DHT22;29650;47.378;8.300;2023-04-01T11:53:53;10.30;99.90
43987;DHT22;29650;47.378;8.300;2023-04-01T11:56:57;10.30;99.00
43987;DHT22;29650;47.378;8.300;2023-04-01T11:59:50;10.50;99.20
43987;DHT22;29650;47.378;8.300;2023-04-01T12:02:28;10.30;98.70
43987;DHT22;29650;47.378;8.300;2023-04-01T12:08:11;10.90;99.90
43987;DHT22;29650;47.378;8.300;2023-04-01T12:10:46;10.70;96.70
43987;DHT22;29650;47.378;8.300;2023-04-01T12:13:28;10.50;97.50
43987;DHT22;29650;47.378;8.300;2023-04-01T12:16:13;10.10;99.80
43987;DHT22;29650;47.378;8.300;2023-04-01T12:18:50;10.20;99.90
43987;DHT22;29650;47.378;8.300;2023-04-01T12:21:25;10.20;99.80
43987;DHT22;29650;47.378;8.300;2023-04-01T12:24:11;10.50;98.90
43987;DHT22;29650;47.378;8.300;2023-04-01T12:32:37;11.10;98.90
43987;DHT22;29650;47.378;8.300;2023-04-01T12:35:22;11.20;96.10
43987;DHT22;29650;47.378;8.300;2023-04-01T12:38:07;11.10;95.40
43987;DHT22;29650;47.378;8.300;2023-04-01T12:40:56;10.90;93.80
43987;DHT22;29650;47.378;8.300;2023-04-01T12:44:00;10.90;93.60
43987;DHT22;29650;47.378;8.300;2023-04-01T12:46:41;11.20;93.90
43987;DHT22;29650;47.378;8.300;2023-04-01T12:49:34;11.30;92.60
43987;DHT22;29650;47.378;8.300;2023-04-01T12:52:07;11.20;92.50
43987;DHT22;29650;47.378;8.300;2023-04-01T12:58:31;11.40;92.20
43987;DHT22;29650;47.378;8.300;2023-04-01T13:01:35;11.60;92.90
43987;DHT22;29650;47.378;8.300;2023-04-01T13:07:59;11.50;90.50
43987;DHT22;29650;47.378;8.300;2023-04-01T13:10:42;11.50;85.90
43987;DHT22;29650;47.378;8.300;2023-04-01T13:13:41;11.50;86.80
43987;DHT22;29650;47.378;8.300;2023-04-01T13:16:13;11.50;86.50
43987;DHT22;29650;47.378;8.300;2023-04-01T13:18:52;11.50;87.00
43987;DHT22;29650;47.378;8.300;2023-04-01T13:21:28;11.70;86.80
43987;DHT22;29650;47.378;8.300;2023-04-01T13:24:01;11.60;86.40
43987;DHT22;29650;47.378;8.300;2023-04-01T13:26:34;11.40;85.30
43987;DHT22;29650;47.378;8.300;2023-04-01T13:29:10;11.50;86.10
43987;DHT22;29650;47.378;8.300;2023-04-01T13:31:49;11.50;86.50
43987;DHT22;29650;47.378;8.300;2023-04-01T13:34:39;11.60;85.50
43987;DHT22;29650;47.378;8.300;2023-04-01T13:37:19;11.50;86.30
43987;DHT22;29650;47.378;8.300;2023-04-01T13:40:01;11.60;86.00
43987;DHT22;29650;47.378;8.300;2023-04-01T13:42:33;11.50;86.40
43987;DHT22;29650;47.378;8.300;2023-04-01T13:45:13;11.50;85.70
43987;DHT22;29650;47.378;8.300;2023-04-01T13:53:59;11.30;84.50
43987;DHT22;29650;47.378;8.300;2023-04-01T13:56:34;11.70;86.70
43987;DHT22;29650;47.378;8.300;2023-04-01T13:59:22;11.90;84.50
43987;DHT22;29650;47.378;8.300;2023-04-01T14:02:08;12.00;85.00
43987;DHT22;29650;47.378;8.300;2023-04-01T14:04:53;11.90;84.00
43987;DHT22;29650;47.378;8.300;2023-04-01T14:07:41;11.90;85.20
43987;DHT22;29650;47.378;8.300;2023-04-01T14:10:19;11.90;85.50
43987;DHT22;29650;47.378;8.300;2023-04-01T14:12:57;11.70;85.90
43987;DHT22;29650;47.378;8.300;2023-04-01T14:18:42;11.50;86.80
43987;DHT22;29650;47.378;8.300;2023-04-01T14:21:20;11.30;90.50
43987;DHT22;29650;47.378;8.300;2023-04-01T14:24:01;10.70;93.00
43987;DHT22;29650;47.378;8.300;2023-04-01T14:27:00;10.40;97.20
43987;DHT22;29650;47.378;8.300;2023-04-01T14:29:31;10.50;99.90
43987;DHT22;29650;47.378;8.300;2023-04-01T14:32:09;10.30;99.90
43987;DHT22;29650;47.378;8.300;2023-04-01T14:34:53;10.30;99.90
43987;DHT22;29650;47.378;8.300;2023-04-01T14:37:40;10.30;99.90
43987;DHT22;29650;47.378;8.300;2023-04-01T14:40:21;10.10;99.90
43987;DHT22;29650;47.378;8.300;2023-04-01T14:43:21;10.10;99.90
43987;DHT22;29650;47.378;8.300;2023-04-01T14:46:05;10.20;99.90
43987;DHT22;29650;47.378;8.300;2023-04-01T14:48:37;10.00;99.90
43987;DHT22;29650;47.378;8.300;2023-04-01T14:51:15;10.10;99.90
43987;DHT22;29650;47.378;8.300;2023-04-01T14:53:50;9.90;99.90
43987;DHT22;29650;47.378;8.300;2023-04-01T14:56:35;10.00;99.90
43987;DHT22;29650;47.378;8.300;2023-04-01T14:59:07;9.70;99.90
43987;DHT22;29650;47.378;8.300;2023-04-01T15:01:40;9.80;99.90
43987;DHT22;29650;47.378;8.300;2023-04-01T15:04:37;9.90;99.90
43987;DHT22;29650;47.378;8.300;2023-04-01T15:07:39;10.10;99.90
43987;DHT22;29650;47.378;8.300;2023-04-01T15:10:22;10.30;99.90
43987;DHT22;29650;47.378;8.300;2023-04-01T15:12:59;10.80;99.90
43987;DHT22;29650;47.378;8.300;2023-04-01T15:15:42;10.70;99.90
43987;DHT22;29650;47.378;8.300;2023-04-01T15:18:16;10.70;99.90
43987;DHT22;29650;47.378;8.300;2023-04-01T15:21:01;10.60;99.90
43987;DHT22;29650;47.378;8.300;2023-04-01T15:23:43;10.60;99.90
43987;DHT22;29650;47.378;8.300;2023-04-01T15:26:33;10.40;99.90
43987;DHT22;29650;47.378;8.300;2023-04-01T15:29:25;10.30;99.90
43987;DHT22;29650;47.378;8.300;2023-04-01T15:32:00;10.60;99.90
43987;DHT22;29650;47.378;8.300;2023-04-01T15:34:35;10.60;99.90
43987;DHT22;29650;47.378;8.300;2023-04-01T15:37:09;10.40;99.90
43987;DHT22;29650;47.378;8.300;2023-04-01T15:39:51;10.40;99.90
43987;DHT22;29650;47.378;8.300;2023-04-01T15:42:42;10.60;99.90
43987;DHT22;29650;47.378;8.300;2023-04-01T15:45:33;10.60;99.90
43987;DHT22;29650;47.378;8.300;2023-04-01T15:48:13;10.70;99.90
43987;DHT22;29650;47.378;8.300;2023-04-01T15:54:01;11.40;99.20
43987;DHT22;29650;47.378;8.300;2023-04-01T15:56:45;11.10;97.70
43987;DHT22;29650;47.378;8.300;2023-04-01T15:59:23;11.30;97.50
43987;DHT22;29650;47.378;8.300;2023-04-01T16:01:59;11.20;96.90
43987;DHT22;29650;47.378;8.300;2023-04-01T16:07:30;10.90;98.20
43987;DHT22;29650;47.378;8.300;2023-04-01T16:10:19;10.70;99.50
43987;DHT22;29650;47.378;8.300;2023-04-01T16:12:58;10.60;99.90
43987;DHT22;29650;47.378;8.300;2023-04-01T16:15:37;10.80;99.90
43987;DHT22;29650;47.378;8.300;2023-04-01T16:18:20;10.80;99.90
43987;DHT22;29650;47.378;8.300;2023-04-01T16:20:53;10.30;99.90
43987;DHT22;29650;47.378;8.300;2023-04-01T16:23:26;10.30;99.90
43987;DHT22;29650;47.378;8.300;2023-04-01T16:26:05;10.40;99.90
43987;DHT22;29650;47.378;8.300;2023-04-01T16:28:38;10.50;99.90
43987;DHT22;29650;47.378;8.300;2023-04-01T16:31:10;10.40;99.90
43987;DHT22;29650;47.378;8.300;2023-04-01T16:33:46;10.50;99.90
43987;DHT22;29650;47.378;8.300;2023-04-01T16:36:24;10.60;99.90
43987;DHT22;29650;47.378;8.300;2023-04-01T16:39:11;10.60;99.90
43987;DHT22;29650;47.378;8.300;2023-04-01T16:41:47;10.30;99.90
43987;DHT22;29650;47.378;8.300;2023-04-01T16:44:20;10.40;99.90
43987;DHT22;29650;47.378;8.300;2023-04-01T16:46:51;10.40;99.90
43987;DHT22;29650;47.378;8.300;2023-04-01T16:49:32;10.40;99.90
43987;DHT22;29650;47.378;8.300;2023-04-01T16:52:13;10.50;99.90
43987;DHT22;29650;47.378;8.300;2023-04-01T16:54:45;10.50;99.90
43987;DHT22;29650;47.378;8.300;2023-04-01T16:57:19;10.40;99.90
43987;DHT22;29650;47.378;8.300;2023-04-01T16:59:54;10.40;99.90
43987;DHT22;29650;47.378;8.300;2023-04-01T17:02:26;10.50;99.90
43987;DHT22;29650;47.378;8.300;2023-04-01T17:04:59;10.50;99.90
43987;DHT22;29650;47.378;8.300;2023-04-01T17:07:36;10.20;99.60
43987;DHT22;29650;47.378;8.300;2023-04-01T17:10:37;10.30;99.90
43987;DHT22;29650;47.378;8.300;2023-04-01T17:13:23;10.40;99.90
43987;DHT22;29650;47.378;8.300;2023-04-01T17:16:02;10.40;99.90
43987;DHT22;29650;47.378;8.300;2023-04-01T17:18:37;10.20;99.90
43987;DHT22;29650;47.378;8.300;2023-04-01T17:21:13;10.00;99.90
43987;DHT22;29650;47.378;8.300;2023-04-01T17:23:45;9.80;99.90
43987;DHT22;29650;47.378;8.300;2023-04-01T17:26:26;9.80;99.90
43987;DHT22;29650;47.378;8.300;2023-04-01T17:28:58;9.60;99.90
43987;DHT22;29650;47.378;8.300;2023-04-01T17:31:41;9.60;99.90
43987;DHT22;29650;47.378;8.300;2023-04-01T17:37:26;9.70;99.90
43987;DHT22;29650;47.378;8.300;2023-04-01T17:40:07;9.70;99.90
43987;DHT22;29650;47.378;8.300;2023-04-01T17:42:39;9.70;99.90
43987;DHT22;29650;47.378;8.300;2023-04-01T17:45:11;9.70;99.90
43987;DHT22;29650;47.378;8.300;2023-04-01T17:47:52;9.60;99.90
43987;DHT22;29650;47.378;8.300;2023-04-01T17:50:35;9.70;99.90
43987;DHT22;29650;47.378;8.300;2023-04-01T17:53:23;9.60;99.90
43987;DHT22;29650;47.378;8.300;2023-04-01T17:56:17;9.80;99.90
43987;DHT22;29650;47.378;8.300;2023-04-01T17:58:48;9.80;99.90
43987;DHT22;29650;47.378;8.300;2023-04-01T18:01:25;9.60;99.90
43987;DHT22;29650;47.378;8.300;2023-04-01T18:04:07;9.70;99.90
43987;DHT22;29650;47.378;8.300;2023-04-01T18:06:39;9.70;99.90
43987;DHT22;29650;47.378;8.300;2023-04-01T18:09:24;9.50;99.90
43987;DHT22;29650;47.378;8.300;2023-04-01T18:12:02;9.30;99.90
43987;DHT22;29650;47.378;8.300;2023-04-01T18:14:50;9.30;99.90
43987;DHT22;29650;47.378;8.300;2023-04-01T18:17:24;9.20;99.90
43987;DHT22;29650;47.378;8.300;2023-04-01T18:20:02;9.10;99.90
43987;DHT22;29650;47.378;8.300;2023-04-01T18:22:38;9.10;99.90
43987;DHT22;29650;47.378;8.300;2023-04-01T18:25:18;9.10;99.90